sensor_id;sensor_type;location;lat;lon;timestamp;P1;P2;P0
77515;PMS5003;66627;29.424;-98.496;2023-03-01T00:01:31;22;20;
77515;PMS5003;66627;29.424;-98.496;2023-03-01T00:03:56;18;16;
77515;PMS5003;66627;29.424;-98.496;2023-03-01T00:06:21;19;17;
77515;PMS5003;66627;29.424;-98.496;2023-03-01T00:08:47;24;20;
77515;PMS5003;66627;29.424;-98.496;2023-03-01T00:11:13;21;19;
77515;PMS5003;66627;29.424;-98.496;2023-03-01T00:13:39;29;25;
77515;PMS5003;66627;29.424;-98.496;2023-03-01T00:16:04;25;20;
77515;PMS5003;66627;29.424;-98.496;2023-03-01T00:18:29;18;17;
77515;PMS5003;66627;29.424;-98.496;2023-03-01T00:20:55;18;18;
77515;PMS5003;66627;29.424;-98.496;2023-03-01T00:23:20;30;25;
77515;PMS5003;66627;29.424;-98.496;2023-03-01T00:25:45;30;26;
77515;PMS5003;66627;29.424;-98.496;2023-03-01T00:28:11;26;25;
77515;PMS5003;66627;29.424;-98.496;2023-03-01T00:30:37;29;24;
77515;PMS5003;66627;29.424;-98.496;2023-03-01T00:33:02;26;25;
77515;PMS5003;66627;29.424;-98.496;2023-03-01T00:35:27;25;25;
77515;PMS5003;66627;29.424;-98.496;2023-03-01T00:37:53;25;23;
77515;PMS5003;66627;29.424;-98.496;2023-03-01T00:40:18;27;25;
77515;PMS5003;66627;29.424;-98.496;2023-03-01T00:42:43;27;24;
77515;PMS5003;66627;29.424;-98.496;2023-03-01T00:45:09;36;31;
77515;PMS5003;66627;29.424;-98.496;2023-03-01T00:47:34;29;27;
77515;PMS5003;66627;29.424;-98.496;2023-03-01T00:50:00;26;26;
77515;PMS5003;66627;29.424;-98.496;2023-03-01T00:52:25;29;29;
77515;PMS5003;66627;29.424;-98.496;2023-03-01T00:54:52;27;27;
77515;PMS5003;66627;29.424;-98.496;2023-03-01T00:57:15;32;28;
77515;PMS5003;66627;29.424;-98.496;2023-03-01T00:59:41;26;22;
77515;PMS5003;66627;29.424;-98.496;2023-03-01T01:02:07;24;23;
77515;PMS5003;66627;29.424;-98.496;2023-03-01T01:04:32;27;25;
77515;PMS5003;66627;29.424;-98.496;2023-03-01T01:06:58;27;25;
77515;PMS5003;66627;29.424;-98.496;2023-03-01T01:09:22;29;26;
77515;PMS5003;66627;29.424;-98.496;2023-03-01T01:11:49;29;23;
77515;PMS5003;66627;29.424;-98.496;2023-03-01T01:14:14;31;28;
77515;PMS5003;66627;29.424;-98.496;2023-03-01T01:16:39;33;28;
77515;PMS5003;66627;29.424;-98.496;2023-03-01T01:19:04;31;29;
77515;PMS5003;66627;29.424;-98.496;2023-03-01T01:21:30;29;25;
77515;PMS5003;66627;29.424;-98.496;2023-03-01T01:23:55;32;28;
77515;PMS5003;66627;29.424;-98.496;2023-03-01T01:26:22;32;30;
77515;PMS5003;66627;29.424;-98.496;2023-03-01T01:28:47;31;31;
77515;PMS5003;66627;29.424;-98.496;2023-03-01T01:31:12;29;26;
77515;PMS5003;66627;29.424;-98.496;2023-03-01T01:33:38;28;28;
77515;PMS5003;66627;29.424;-98.496;2023-03-01T01:36:04;30;29;
77515;PMS5003;66627;29.424;-98.496;2023-03-01T01:38:30;34;32;
77515;PMS5003;66627;29.424;-98.496;2023-03-01T01:40:55;27;24;
77515;PMS5003;66627;29.424;-98.496;2023-03-01T01:43:21;29;26;
77515;PMS5003;66627;29.424;-98.496;2023-03-01T01:45:46;32;28;
77515;PMS5003;66627;29.424;-98.496;2023-03-01T01:48:13;32;30;
77515;PMS5003;66627;29.424;-98.496;2023-03-01T01:50:37;35;28;
77515;PMS5003;66627;29.424;-98.496;2023-03-01T01:53:03;36;34;
77515;PMS5003;66627;29.424;-98.496;2023-03-01T01:55:28;31;30;
77515;PMS5003;66627;29.424;-98.496;2023-03-01T01:57:54;32;30;
77515;PMS5003;66627;29.424;-98.496;2023-03-01T02:00:20;30;27;
77515;PMS5003;66627;29.424;-98.496;2023-03-01T02:02:45;34;28;
77515;PMS5003;66627;29.424;-98.496;2023-03-01T02:05:11;33;27;
77515;PMS5003;66627;29.424;-98.496;2023-03-01T02:07:35;31;29;
77515;PMS5003;66627;29.424;-98.496;2023-03-01T02:10:01;31;27;
77515;PMS5003;66627;29.424;-98.496;2023-03-01T02:12:27;35;30;
77515;PMS5003;66627;29.424;-98.496;2023-03-01T02:14:52;25;24;
77515;PMS5003;66627;29.424;-98.496;2023-03-01T02:19:56;27;24;
77515;PMS5003;66627;29.424;-98.496;2023-03-01T02:22:12;33;30;
77515;PMS5003;66627;29.424;-98.496;2023-03-01T02:24:36;29;26;
77515;PMS5003;66627;29.424;-98.496;2023-03-01T02:26:59;31;27;
77515;PMS5003;66627;29.424;-98.496;2023-03-01T02:29:24;31;28;
77515;PMS5003;66627;29.424;-98.496;2023-03-01T02:31:49;33;28;
77515;PMS5003;66627;29.424;-98.496;2023-03-01T02:34:15;34;32;
77515;PMS5003;66627;29.424;-98.496;2023-03-01T02:36:42;33;30;
77515;PMS5003;66627;29.424;-98.496;2023-03-01T02:39:07;28;27;
77515;PMS5003;66627;29.424;-98.496;2023-03-01T02:41:32;39;35;
77515;PMS5003;66627;29.424;-98.496;2023-03-01T02:43:56;35;34;
77515;PMS5003;66627;29.424;-98.496;2023-03-01T02:46:23;37;36;
77515;PMS5003;66627;29.424;-98.496;2023-03-01T02:48:48;38;35;
77515;PMS5003;66627;29.424;-98.496;2023-03-01T02:51:18;41;38;
77515;PMS5003;66627;29.424;-98.496;2023-03-01T02:53:41;38;34;
77515;PMS5003;66627;29.424;-98.496;2023-03-01T02:56:04;34;31;
77515;PMS5003;66627;29.424;-98.496;2023-03-01T02:58:30;42;40;
77515;PMS5003;66627;29.424;-98.496;2023-03-01T03:00:55;40;35;
77515;PMS5003;66627;29.424;-98.496;2023-03-01T03:03:20;39;37;
77515;PMS5003;66627;29.424;-98.496;2023-03-01T03:05:46;41;38;
77515;PMS5003;66627;29.424;-98.496;2023-03-01T03:08:12;36;34;
77515;PMS5003;66627;29.424;-98.496;2023-03-01T03:10:38;36;36;
77515;PMS5003;66627;29.424;-98.496;2023-03-01T03:13:04;34;30;
77515;PMS5003;66627;29.424;-98.496;2023-03-01T03:15:28;38;35;
77515;PMS5003;66627;29.424;-98.496;2023-03-01T03:17:53;34;33;
77515;PMS5003;66627;29.424;-98.496;2023-03-01T03:20:19;32;30;
77515;PMS5003;66627;29.424;-98.496;2023-03-01T03:22:43;35;35;
77515;PMS5003;66627;29.424;-98.496;2023-03-01T03:25:09;34;28;
77515;PMS5003;66627;29.424;-98.496;2023-03-01T03:27:34;39;35;
77515;PMS5003;66627;29.424;-98.496;2023-03-01T03:29:59;33;32;
77515;PMS5003;66627;29.424;-98.496;2023-03-01T03:32:24;35;30;
77515;PMS5003;66627;29.424;-98.496;2023-03-01T03:34:50;36;35;
77515;PMS5003;66627;29.424;-98.496;2023-03-01T03:37:16;43;39;
77515;PMS5003;66627;29.424;-98.496;2023-03-01T03:39:42;33;32;
77515;PMS5003;66627;29.424;-98.496;2023-03-01T03:42:07;39;37;
77515;PMS5003;66627;29.424;-98.496;2023-03-01T03:44:32;38;35;
77515;PMS5003;66627;29.424;-98.496;2023-03-01T03:46:57;39;37;
77515;PMS5003;66627;29.424;-98.496;2023-03-01T03:49:23;35;33;
77515;PMS5003;66627;29.424;-98.496;2023-03-01T03:51:48;35;33;
77515;PMS5003;66627;29.424;-98.496;2023-03-01T03:54:14;34;30;
77515;PMS5003;66627;29.424;-98.496;2023-03-01T03:56:39;39;37;
77515;PMS5003;66627;29.424;-98.496;2023-03-01T03:59:04;39;39;
77515;PMS5003;66627;29.424;-98.496;2023-03-01T04:01:30;42;39;
77515;PMS5003;66627;29.424;-98.496;2023-03-01T04:03:55;44;39;
77515;PMS5003;66627;29.424;-98.496;2023-03-01T04:06:20;35;33;
77515;PMS5003;66627;29.424;-98.496;2023-03-01T04:08:46;38;33;
77515;PMS5003;66627;29.424;-98.496;2023-03-01T04:11:11;36;35;
77515;PMS5003;66627;29.424;-98.496;2023-03-01T04:13:36;39;39;
77515;PMS5003;66627;29.424;-98.496;2023-03-01T04:16:02;33;32;
77515;PMS5003;66627;29.424;-98.496;2023-03-01T04:18:27;35;34;
77515;PMS5003;66627;29.424;-98.496;2023-03-01T04:20:52;35;34;
77515;PMS5003;66627;29.424;-98.496;2023-03-01T04:23:19;33;33;
77515;PMS5003;66627;29.424;-98.496;2023-03-01T04:25:46;31;29;
77515;PMS5003;66627;29.424;-98.496;2023-03-01T04:28:09;33;33;
77515;PMS5003;66627;29.424;-98.496;2023-03-01T04:30:34;36;33;
77515;PMS5003;66627;29.424;-98.496;2023-03-01T04:32:59;36;34;
77515;PMS5003;66627;29.424;-98.496;2023-03-01T04:35:25;36;33;
77515;PMS5003;66627;29.424;-98.496;2023-03-01T04:37:51;43;37;
77515;PMS5003;66627;29.424;-98.496;2023-03-01T04:40:16;35;34;
77515;PMS5003;66627;29.424;-98.496;2023-03-01T04:42:41;36;34;
77515;PMS5003;66627;29.424;-98.496;2023-03-01T04:45:08;40;33;
77515;PMS5003;66627;29.424;-98.496;2023-03-01T04:47:32;38;33;
77515;PMS5003;66627;29.424;-98.496;2023-03-01T04:49:57;34;33;
77515;PMS5003;66627;29.424;-98.496;2023-03-01T04:52:23;34;32;
77515;PMS5003;66627;29.424;-98.496;2023-03-01T04:54:48;32;29;
77515;PMS5003;66627;29.424;-98.496;2023-03-01T04:57:14;35;29;
77515;PMS5003;66627;29.424;-98.496;2023-03-01T04:59:39;37;34;
77515;PMS5003;66627;29.424;-98.496;2023-03-01T05:02:04;41;38;
77515;PMS5003;66627;29.424;-98.496;2023-03-01T05:04:30;38;36;
77515;PMS5003;66627;29.424;-98.496;2023-03-01T05:06:55;33;30;
77515;PMS5003;66627;29.424;-98.496;2023-03-01T05:09:20;33;30;
77515;PMS5003;66627;29.424;-98.496;2023-03-01T05:11:47;38;36;
77515;PMS5003;66627;29.424;-98.496;2023-03-01T05:14:11;36;33;
77515;PMS5003;66627;29.424;-98.496;2023-03-01T05:16:36;34;33;
77515;PMS5003;66627;29.424;-98.496;2023-03-01T05:19:02;35;32;
77515;PMS5003;66627;29.424;-98.496;2023-03-01T05:21:27;37;37;
77515;PMS5003;66627;29.424;-98.496;2023-03-01T05:23:52;45;41;
77515;PMS5003;66627;29.424;-98.496;2023-03-01T05:26:19;34;34;
77515;PMS5003;66627;29.424;-98.496;2023-03-01T05:28:44;35;33;
77515;PMS5003;66627;29.424;-98.496;2023-03-01T05:31:09;41;37;
77515;PMS5003;66627;29.424;-98.496;2023-03-01T05:33:35;43;39;
77515;PMS5003;66627;29.424;-98.496;2023-03-01T05:36:00;48;39;
77515;PMS5003;66627;29.424;-98.496;2023-03-01T05:38:26;34;32;
77515;PMS5003;66627;29.424;-98.496;2023-03-01T05:40:51;46;38;
77515;PMS5003;66627;29.424;-98.496;2023-03-01T05:43:17;47;43;
77515;PMS5003;66627;29.424;-98.496;2023-03-01T05:45:43;44;41;
77515;PMS5003;66627;29.424;-98.496;2023-03-01T05:48:09;44;39;
77515;PMS5003;66627;29.424;-98.496;2023-03-01T05:50:34;46;45;
77515;PMS5003;66627;29.424;-98.496;2023-03-01T05:52:59;37;37;
77515;PMS5003;66627;29.424;-98.496;2023-03-01T05:55:23;44;41;
77515;PMS5003;66627;29.424;-98.496;2023-03-01T05:57:49;46;44;
77515;PMS5003;66627;29.424;-98.496;2023-03-01T06:00:16;45;42;
77515;PMS5003;66627;29.424;-98.496;2023-03-01T06:02:40;48;42;
77515;PMS5003;66627;29.424;-98.496;2023-03-01T06:05:06;48;43;
77515;PMS5003;66627;29.424;-98.496;2023-03-01T06:07:31;46;44;
77515;PMS5003;66627;29.424;-98.496;2023-03-01T06:09:56;47;45;
77515;PMS5003;66627;29.424;-98.496;2023-03-01T06:12:22;48;43;
77515;PMS5003;66627;29.424;-98.496;2023-03-01T06:14:48;48;44;
77515;PMS5003;66627;29.424;-98.496;2023-03-01T06:17:14;47;42;
77515;PMS5003;66627;29.424;-98.496;2023-03-01T06:19:39;43;40;
77515;PMS5003;66627;29.424;-98.496;2023-03-01T06:22:05;47;44;
77515;PMS5003;66627;29.424;-98.496;2023-03-01T06:24:30;49;47;
77515;PMS5003;66627;29.424;-98.496;2023-03-01T06:26:55;42;41;
77515;PMS5003;66627;29.424;-98.496;2023-03-01T06:29:20;52;48;
77515;PMS5003;66627;29.424;-98.496;2023-03-01T06:31:46;48;42;
77515;PMS5003;66627;29.424;-98.496;2023-03-01T06:34:12;45;42;
77515;PMS5003;66627;29.424;-98.496;2023-03-01T06:36:37;55;49;
77515;PMS5003;66627;29.424;-98.496;2023-03-01T06:39:03;51;46;
77515;PMS5003;66627;29.424;-98.496;2023-03-01T06:41:29;41;41;
77515;PMS5003;66627;29.424;-98.496;2023-03-01T06:43:54;42;42;
77515;PMS5003;66627;29.424;-98.496;2023-03-01T06:46:19;40;38;
77515;PMS5003;66627;29.424;-98.496;2023-03-01T06:48:44;61;54;
77515;PMS5003;66627;29.424;-98.496;2023-03-01T06:51:10;50;48;
77515;PMS5003;66627;29.424;-98.496;2023-03-01T06:53:35;53;51;
77515;PMS5003;66627;29.424;-98.496;2023-03-01T06:56:01;58;50;
77515;PMS5003;66627;29.424;-98.496;2023-03-01T06:58:27;46;41;
77515;PMS5003;66627;29.424;-98.496;2023-03-01T07:00:52;52;45;
77515;PMS5003;66627;29.424;-98.496;2023-03-01T07:03:18;59;55;
77515;PMS5003;66627;29.424;-98.496;2023-03-01T07:05:42;52;48;
77515;PMS5003;66627;29.424;-98.496;2023-03-01T07:08:07;52;48;
77515;PMS5003;66627;29.424;-98.496;2023-03-01T07:10:33;57;53;
77515;PMS5003;66627;29.424;-98.496;2023-03-01T07:12:59;53;51;
77515;PMS5003;66627;29.424;-98.496;2023-03-01T07:15:24;59;53;
77515;PMS5003;66627;29.424;-98.496;2023-03-01T07:17:49;59;51;
77515;PMS5003;66627;29.424;-98.496;2023-03-01T07:20:14;57;52;
77515;PMS5003;66627;29.424;-98.496;2023-03-01T07:22:40;64;54;
77515;PMS5003;66627;29.424;-98.496;2023-03-01T07:25:06;59;55;
77515;PMS5003;66627;29.424;-98.496;2023-03-01T07:27:31;53;51;
77515;PMS5003;66627;29.424;-98.496;2023-03-01T07:29:56;57;52;
77515;PMS5003;66627;29.424;-98.496;2023-03-01T07:32:21;49;46;
77515;PMS5003;66627;29.424;-98.496;2023-03-01T07:34:47;60;54;
77515;PMS5003;66627;29.424;-98.496;2023-03-01T07:37:13;56;52;
77515;PMS5003;66627;29.424;-98.496;2023-03-01T07:39:39;63;59;
77515;PMS5003;66627;29.424;-98.496;2023-03-01T07:42:04;56;55;
77515;PMS5003;66627;29.424;-98.496;2023-03-01T07:44:30;62;59;
77515;PMS5003;66627;29.424;-98.496;2023-03-01T07:46:55;61;55;
77515;PMS5003;66627;29.424;-98.496;2023-03-01T07:49:21;58;56;
77515;PMS5003;66627;29.424;-98.496;2023-03-01T07:51:47;59;56;
77515;PMS5003;66627;29.424;-98.496;2023-03-01T07:54:13;60;56;
77515;PMS5003;66627;29.424;-98.496;2023-03-01T07:56:38;60;57;
77515;PMS5003;66627;29.424;-98.496;2023-03-01T07:59:04;55;54;
77515;PMS5003;66627;29.424;-98.496;2023-03-01T08:01:29;56;55;
77515;PMS5003;66627;29.424;-98.496;2023-03-01T08:03:54;58;53;
77515;PMS5003;66627;29.424;-98.496;2023-03-01T08:06:20;57;54;
77515;PMS5003;66627;29.424;-98.496;2023-03-01T08:08:46;60;56;
77515;PMS5003;66627;29.424;-98.496;2023-03-01T08:11:12;63;57;
77515;PMS5003;66627;29.424;-98.496;2023-03-01T08:13:37;69;61;
77515;PMS5003;66627;29.424;-98.496;2023-03-01T08:16:02;62;57;
77515;PMS5003;66627;29.424;-98.496;2023-03-01T08:18:28;66;60;
77515;PMS5003;66627;29.424;-98.496;2023-03-01T08:20:52;54;49;
77515;PMS5003;66627;29.424;-98.496;2023-03-01T08:23:18;65;58;
77515;PMS5003;66627;29.424;-98.496;2023-03-01T08:25:44;62;58;
77515;PMS5003;66627;29.424;-98.496;2023-03-01T08:28:09;63;59;
77515;PMS5003;66627;29.424;-98.496;2023-03-01T08:30:35;69;63;
77515;PMS5003;66627;29.424;-98.496;2023-03-01T08:33:00;68;63;
77515;PMS5003;66627;29.424;-98.496;2023-03-01T08:35:25;58;55;
77515;PMS5003;66627;29.424;-98.496;2023-03-01T08:37:52;68;62;
77515;PMS5003;66627;29.424;-98.496;2023-03-01T08:40:17;60;53;
77515;PMS5003;66627;29.424;-98.496;2023-03-01T08:42:42;65;63;
77515;PMS5003;66627;29.424;-98.496;2023-03-01T08:45:08;68;63;
77515;PMS5003;66627;29.424;-98.496;2023-03-01T08:47:32;67;59;
77515;PMS5003;66627;29.424;-98.496;2023-03-01T08:49:58;69;60;
77515;PMS5003;66627;29.424;-98.496;2023-03-01T08:52:24;66;58;
77515;PMS5003;66627;29.424;-98.496;2023-03-01T08:54:49;67;58;
77515;PMS5003;66627;29.424;-98.496;2023-03-01T08:57:14;64;61;
77515;PMS5003;66627;29.424;-98.496;2023-03-01T08:59:39;66;63;
77515;PMS5003;66627;29.424;-98.496;2023-03-01T09:02:05;69;60;
77515;PMS5003;66627;29.424;-98.496;2023-03-01T09:04:31;59;56;
77515;PMS5003;66627;29.424;-98.496;2023-03-01T09:06:57;65;58;
77515;PMS5003;66627;29.424;-98.496;2023-03-01T09:09:22;72;61;
77515;PMS5003;66627;29.424;-98.496;2023-03-01T09:11:48;70;59;
77515;PMS5003;66627;29.424;-98.496;2023-03-01T09:14:14;70;60;
77515;PMS5003;66627;29.424;-98.496;2023-03-01T09:16:39;58;55;
77515;PMS5003;66627;29.424;-98.496;2023-03-01T09:19:04;64;59;
77515;PMS5003;66627;29.424;-98.496;2023-03-01T09:21:29;61;51;
77515;PMS5003;66627;29.424;-98.496;2023-03-01T09:23:55;52;46;
77515;PMS5003;66627;29.424;-98.496;2023-03-01T09:26:21;71;64;
77515;PMS5003;66627;29.424;-98.496;2023-03-01T09:28:46;58;54;
77515;PMS5003;66627;29.424;-98.496;2023-03-01T09:31:12;59;52;
77515;PMS5003;66627;29.424;-98.496;2023-03-01T09:33:37;74;60;
77515;PMS5003;66627;29.424;-98.496;2023-03-01T09:36:03;53;50;
77515;PMS5003;66627;29.424;-98.496;2023-03-01T09:38:28;52;49;
77515;PMS5003;66627;29.424;-98.496;2023-03-01T09:40:53;49;46;
77515;PMS5003;66627;29.424;-98.496;2023-03-01T09:43:20;60;53;
77515;PMS5003;66627;29.424;-98.496;2023-03-01T09:45:44;58;55;
77515;PMS5003;66627;29.424;-98.496;2023-03-01T09:48:09;59;53;
77515;PMS5003;66627;29.424;-98.496;2023-03-01T09:50:35;61;57;
77515;PMS5003;66627;29.424;-98.496;2023-03-01T09:53:01;51;49;
77515;PMS5003;66627;29.424;-98.496;2023-03-01T09:55:26;71;54;
77515;PMS5003;66627;29.424;-98.496;2023-03-01T09:57:50;54;48;
77515;PMS5003;66627;29.424;-98.496;2023-03-01T10:00:17;54;47;
77515;PMS5003;66627;29.424;-98.496;2023-03-01T10:02:42;46;43;
77515;PMS5003;66627;29.424;-98.496;2023-03-01T10:05:11;50;45;
77515;PMS5003;66627;29.424;-98.496;2023-03-01T10:07:35;52;49;
77515;PMS5003;66627;29.424;-98.496;2023-03-01T10:09:57;56;51;
77515;PMS5003;66627;29.424;-98.496;2023-03-01T10:12:23;53;50;
77515;PMS5003;66627;29.424;-98.496;2023-03-01T10:14:50;53;49;
77515;PMS5003;66627;29.424;-98.496;2023-03-01T10:17:15;49;47;
77515;PMS5003;66627;29.424;-98.496;2023-03-01T10:19:39;55;51;
77515;PMS5003;66627;29.424;-98.496;2023-03-01T10:22:05;59;56;
77515;PMS5003;66627;29.424;-98.496;2023-03-01T10:24:29;48;46;
77515;PMS5003;66627;29.424;-98.496;2023-03-01T10:26:55;60;53;
77515;PMS5003;66627;29.424;-98.496;2023-03-01T10:29:20;53;50;
77515;PMS5003;66627;29.424;-98.496;2023-03-01T10:31:46;58;50;
77515;PMS5003;66627;29.424;-98.496;2023-03-01T10:34:12;51;50;
77515;PMS5003;66627;29.424;-98.496;2023-03-01T10:36:36;52;49;
77515;PMS5003;66627;29.424;-98.496;2023-03-01T10:39:02;52;50;
77515;PMS5003;66627;29.424;-98.496;2023-03-01T10:41:27;55;49;
77515;PMS5003;66627;29.424;-98.496;2023-03-01T10:43:53;48;44;
77515;PMS5003;66627;29.424;-98.496;2023-03-01T10:46:25;55;51;
77515;PMS5003;66627;29.424;-98.496;2023-03-01T10:48:43;50;46;
77515;PMS5003;66627;29.424;-98.496;2023-03-01T10:51:12;51;50;
77515;PMS5003;66627;29.424;-98.496;2023-03-01T10:53:34;47;44;
77515;PMS5003;66627;29.424;-98.496;2023-03-01T10:56:00;52;44;
77515;PMS5003;66627;29.424;-98.496;2023-03-01T10:58:24;48;47;
77515;PMS5003;66627;29.424;-98.496;2023-03-01T11:00:51;45;43;
77515;PMS5003;66627;29.424;-98.496;2023-03-01T11:03:17;52;46;
77515;PMS5003;66627;29.424;-98.496;2023-03-01T11:08:06;56;52;
77515;PMS5003;66627;29.424;-98.496;2023-03-01T11:10:31;51;50;
77515;PMS5003;66627;29.424;-98.496;2023-03-01T11:15:23;51;47;
77515;PMS5003;66627;29.424;-98.496;2023-03-01T11:17:47;59;50;
77515;PMS5003;66627;29.424;-98.496;2023-03-01T11:20:15;54;50;
77515;PMS5003;66627;29.424;-98.496;2023-03-01T11:22:38;61;55;
77515;PMS5003;66627;29.424;-98.496;2023-03-01T11:25:03;58;51;
77515;PMS5003;66627;29.424;-98.496;2023-03-01T11:27:29;51;46;
77515;PMS5003;66627;29.424;-98.496;2023-03-01T11:29:55;57;51;
77515;PMS5003;66627;29.424;-98.496;2023-03-01T11:32:19;58;50;
77515;PMS5003;66627;29.424;-98.496;2023-03-01T11:34:47;57;52;
77515;PMS5003;66627;29.424;-98.496;2023-03-01T11:37:14;53;46;
77515;PMS5003;66627;29.424;-98.496;2023-03-01T11:39:37;54;49;
77515;PMS5003;66627;29.424;-98.496;2023-03-01T11:42:05;48;47;
77515;PMS5003;66627;29.424;-98.496;2023-03-01T11:44:27;52;52;
77515;PMS5003;66627;29.424;-98.496;2023-03-01T11:51:46;49;44;
77515;PMS5003;66627;29.424;-98.496;2023-03-01T11:54:13;53;47;
77515;PMS5003;66627;29.424;-98.496;2023-03-01T11:56:35;50;47;
77515;PMS5003;66627;29.424;-98.496;2023-03-01T11:59:04;53;50;
77515;PMS5003;66627;29.424;-98.496;2023-03-01T12:01:28;56;48;
77515;PMS5003;66627;29.424;-98.496;2023-03-01T12:03:54;56;54;
77515;PMS5003;66627;29.424;-98.496;2023-03-01T12:08:41;60;54;
77515;PMS5003;66627;29.424;-98.496;2023-03-01T12:11:09;57;51;
77515;PMS5003;66627;29.424;-98.496;2023-03-01T12:16:00;51;47;
77515;PMS5003;66627;29.424;-98.496;2023-03-01T12:18:27;54;50;
77515;PMS5003;66627;29.424;-98.496;2023-03-01T12:20:50;62;55;
77515;PMS5003;66627;29.424;-98.496;2023-03-01T12:23:21;51;47;
77515;PMS5003;66627;29.424;-98.496;2023-03-01T12:25:38;53;47;
77515;PMS5003;66627;29.424;-98.496;2023-03-01T12:30:34;49;48;
77515;PMS5003;66627;29.424;-98.496;2023-03-01T12:33:00;47;46;
77515;PMS5003;66627;29.424;-98.496;2023-03-01T12:35:28;50;47;
77515;PMS5003;66627;29.424;-98.496;2023-03-01T12:37:50;63;56;
77515;PMS5003;66627;29.424;-98.496;2023-03-01T12:40:18;48;45;
77515;PMS5003;66627;29.424;-98.496;2023-03-01T12:42:39;46;42;
77515;PMS5003;66627;29.424;-98.496;2023-03-01T12:45:12;53;46;
77515;PMS5003;66627;29.424;-98.496;2023-03-01T12:47:34;53;49;
77515;PMS5003;66627;29.424;-98.496;2023-03-01T12:49:55;55;50;
77515;PMS5003;66627;29.424;-98.496;2023-03-01T12:52:21;42;40;
77515;PMS5003;66627;29.424;-98.496;2023-03-01T12:54:45;47;45;
77515;PMS5003;66627;29.424;-98.496;2023-03-01T12:57:12;54;50;
77515;PMS5003;66627;29.424;-98.496;2023-03-01T12:59:37;48;48;
77515;PMS5003;66627;29.424;-98.496;2023-03-01T13:02:03;55;52;
77515;PMS5003;66627;29.424;-98.496;2023-03-01T13:04:29;61;52;
77515;PMS5003;66627;29.424;-98.496;2023-03-01T13:06:55;58;48;
77515;PMS5003;66627;29.424;-98.496;2023-03-01T13:09:21;52;46;
77515;PMS5003;66627;29.424;-98.496;2023-03-01T13:11:44;59;51;
77515;PMS5003;66627;29.424;-98.496;2023-03-01T13:16:40;52;47;
77515;PMS5003;66627;29.424;-98.496;2023-03-01T13:21:29;47;44;
77515;PMS5003;66627;29.424;-98.496;2023-03-01T13:23:50;51;40;
77515;PMS5003;66627;29.424;-98.496;2023-03-01T13:26:17;59;48;
77515;PMS5003;66627;29.424;-98.496;2023-03-01T13:28:46;49;46;
77515;PMS5003;66627;29.424;-98.496;2023-03-01T13:31:08;54;47;
77515;PMS5003;66627;29.424;-98.496;2023-03-01T13:35:58;54;49;
77515;PMS5003;66627;29.424;-98.496;2023-03-01T13:40:57;52;45;
77515;PMS5003;66627;29.424;-98.496;2023-03-01T13:48:09;56;48;
77515;PMS5003;66627;29.424;-98.496;2023-03-01T13:50:33;52;47;
77515;PMS5003;66627;29.424;-98.496;2023-03-01T13:52:57;48;48;
77515;PMS5003;66627;29.424;-98.496;2023-03-01T13:55:24;50;46;
77515;PMS5003;66627;29.424;-98.496;2023-03-01T13:57:47;59;53;
77515;PMS5003;66627;29.424;-98.496;2023-03-01T14:02:38;59;53;
77515;PMS5003;66627;29.424;-98.496;2023-03-01T14:05:03;57;51;
77515;PMS5003;66627;29.424;-98.496;2023-03-01T14:07:30;59;50;
77515;PMS5003;66627;29.424;-98.496;2023-03-01T14:09:55;55;49;
77515;PMS5003;66627;29.424;-98.496;2023-03-01T14:12:23;61;53;
77515;PMS5003;66627;29.424;-98.496;2023-03-01T14:14:47;58;54;
77515;PMS5003;66627;29.424;-98.496;2023-03-01T14:17:16;55;49;
77515;PMS5003;66627;29.424;-98.496;2023-03-01T14:19:36;60;54;
77515;PMS5003;66627;29.424;-98.496;2023-03-01T14:22:04;64;56;
77515;PMS5003;66627;29.424;-98.496;2023-03-01T14:24:27;52;48;
77515;PMS5003;66627;29.424;-98.496;2023-03-01T14:26:53;70;62;
77515;PMS5003;66627;29.424;-98.496;2023-03-01T14:29:25;63;54;
77515;PMS5003;66627;29.424;-98.496;2023-03-01T14:31:44;68;61;
77515;PMS5003;66627;29.424;-98.496;2023-03-01T14:34:16;57;54;
77515;PMS5003;66627;29.424;-98.496;2023-03-01T14:36:35;66;57;
77515;PMS5003;66627;29.424;-98.496;2023-03-01T14:39:15;61;60;
77515;PMS5003;66627;29.424;-98.496;2023-03-01T14:41:27;61;59;
77515;PMS5003;66627;29.424;-98.496;2023-03-01T14:43:54;69;61;
77515;PMS5003;66627;29.424;-98.496;2023-03-01T14:46:19;67;58;
77515;PMS5003;66627;29.424;-98.496;2023-03-01T14:48:44;61;58;
77515;PMS5003;66627;29.424;-98.496;2023-03-01T14:51:09;68;57;
77515;PMS5003;66627;29.424;-98.496;2023-03-01T14:53:34;59;52;
77515;PMS5003;66627;29.424;-98.496;2023-03-01T14:56:00;56;49;
77515;PMS5003;66627;29.424;-98.496;2023-03-01T14:58:26;60;53;
77515;PMS5003;66627;29.424;-98.496;2023-03-01T15:00:53;70;61;
77515;PMS5003;66627;29.424;-98.496;2023-03-01T15:03:19;72;67;
77515;PMS5003;66627;29.424;-98.496;2023-03-01T15:05:42;70;64;
77515;PMS5003;66627;29.424;-98.496;2023-03-01T15:08:12;80;69;
77515;PMS5003;66627;29.424;-98.496;2023-03-01T15:10:34;61;58;
77515;PMS5003;66627;29.424;-98.496;2023-03-01T15:15:33;65;59;
77515;PMS5003;66627;29.424;-98.496;2023-03-01T15:17:51;69;64;
77515;PMS5003;66627;29.424;-98.496;2023-03-01T15:20:16;68;63;
77515;PMS5003;66627;29.424;-98.496;2023-03-01T15:22:43;72;63;
77515;PMS5003;66627;29.424;-98.496;2023-03-01T15:27:31;71;61;
77515;PMS5003;66627;29.424;-98.496;2023-03-01T15:29:57;67;66;
77515;PMS5003;66627;29.424;-98.496;2023-03-01T15:32:24;69;65;
77515;PMS5003;66627;29.424;-98.496;2023-03-01T15:34:47;69;64;
77515;PMS5003;66627;29.424;-98.496;2023-03-01T15:39:39;77;62;
77515;PMS5003;66627;29.424;-98.496;2023-03-01T15:42:05;68;62;
77515;PMS5003;66627;29.424;-98.496;2023-03-01T15:44:30;68;66;
77515;PMS5003;66627;29.424;-98.496;2023-03-01T15:46:55;70;65;
77515;PMS5003;66627;29.424;-98.496;2023-03-01T15:49:24;83;73;
77515;PMS5003;66627;29.424;-98.496;2023-03-01T15:51:47;79;75;
77515;PMS5003;66627;29.424;-98.496;2023-03-01T15:54:14;77;68;
77515;PMS5003;66627;29.424;-98.496;2023-03-01T15:56:37;75;68;
77515;PMS5003;66627;29.424;-98.496;2023-03-01T15:59:02;68;65;
77515;PMS5003;66627;29.424;-98.496;2023-03-01T16:01:28;75;66;
77515;PMS5003;66627;29.424;-98.496;2023-03-01T16:03:54;76;72;
77515;PMS5003;66627;29.424;-98.496;2023-03-01T16:06:19;86;71;
77515;PMS5003;66627;29.424;-98.496;2023-03-01T16:08:45;76;71;
77515;PMS5003;66627;29.424;-98.496;2023-03-01T16:11:13;73;68;
77515;PMS5003;66627;29.424;-98.496;2023-03-01T16:13:36;84;72;
77515;PMS5003;66627;29.424;-98.496;2023-03-01T16:16:01;75;67;
77515;PMS5003;66627;29.424;-98.496;2023-03-01T16:18:27;77;72;